Reportages photos

Inscriptions en ligne

Connexion

10 Km

10 KM FOULEES DANNOISES du 07/06/15 (Reelle 9,8)
Rang Dossard Nom Prénom Temps Cat Rang Cat Ecart Ecart Cat Club Vitesse Km/h Temps au Km
1 965 RAMET BENOIT 00:32:58 SEM 1 00:00:00 00:00:00 TOUQUET OPALE ATHLETISME 17,836 03:22
2 950 BOULOGNE JEREMY 00:33:39 V1M 1 00:00:41 00:00:00 AC AUDOMAROIS 17,474 03:26
3 847 PICHONNIER GUILLAUME 00:34:24 SEM 2 00:01:26 00:01:26 NON LICENCIE 17,093 03:31
4 960 CALOIN MATHIEU 00:35:21 SEM 3 00:02:23 00:02:23 TOUQUET OPALE ATHLETISME 16,634 03:36
5 840 PRUVOT ROMAIN 00:37:20 SEM 4 00:04:22 00:04:22 TOUQUET OPALE ATHLETISME 15,750 03:49
6 969 DUCROCQ MARC-ANTOINE 00:37:50 SEM 5 00:04:52 00:04:52 NON LICENCIE 15,542 03:52
7 951 PERRAULT DAVID 00:38:09 V1M 2 00:05:11 00:04:30 AS CAMIERS 15,413 03:54
8 1141 GOSSELIN REYNALD 00:38:27 SEM 6 00:05:29 00:05:29 NON LICENCIE 15,293 03:55
9 943 PRUVOT LUDOVIC 00:38:48 V1M 3 00:05:50 00:05:09 NON LICENCIE 15,155 03:58
10 942 HAIGNERE WILLIAM 00:38:58 SEM 7 00:06:00 00:06:00 NON LICENCIE 15,090 03:59
11 1151 DUCATEL JEROME 00:39:11 SEM 8 00:06:13 00:06:13 NON LICENCIE 15,006 04:00
12 964 DUCROCQ ARNAUD 00:39:26 V1M 4 00:06:28 00:05:47 PATRIOTES CROSS DE GUINES 14,911 04:01
13 845 TAVERNE DAMIEN 00:39:35 SEM 9 00:06:37 00:06:37 TOUQUET OPALE ATHLETISME 14,855 04:02
14 894 APHERVE AURELIEN 00:39:41 CAM 1 00:06:43 00:00:00 LE DRAPEAU 14,817 04:03
15 906 VAMBRE LAURENT 00:39:42 V1M 5 00:06:44 00:06:03 TOUQUET OPALE ATHLETISME 14,811 04:03
16 850 RAY SAMUEL 00:40:30 V1M 6 00:07:32 00:06:51 NON LICENCIE 14,519 04:08
17 861 BUQUET JEROME 00:40:52 V1M 7 00:07:54 00:07:13 NON LICENCIE 14,388 04:10
18 866 DUCLOY MARTIN 00:41:02 JUM 1 00:08:04 00:00:00 NON LICENCIE 14,330 04:11
19 1146 HALLENNE VALERY 00:41:06 V1M 8 00:08:08 00:07:27 TOUQUET OPALE ATHLETISME 14,307 04:12
20 1130 DEGARDIN LAURENT 00:41:15 V1M 9 00:08:17 00:07:36 TOUQUET OPALE ATHLETISME 14,255 04:13
21 882 FLAHAUT DANIEL 00:41:20 V1M 10 00:08:22 00:07:41 LE DRAPEAU 14,226 04:13
22 829 WILLER FREDERIC 00:41:34 V1M 11 00:08:36 00:07:55 14,146 04:14
23 1142 CAPPE ALEXANDRE 00:41:42 SEM 10 00:08:44 00:08:44 NON LICENCIE 14,101 04:15
24 947 GRESSIER OLIVIER 00:41:52 V1M 12 00:08:54 00:08:13 FREVENT OLYMPIC CLUB 14,045 04:16
25 886 CARDON FLORIAN 00:41:59 SEM 11 00:09:01 00:09:01 LE DRAPEAU 14,006 04:17
26 914 MERLIN LOIC 00:42:17 SEM 12 00:09:19 00:09:19 ATHLETISME CLUB OUTREAU 13,906 04:19
27 859 DEWEER NICOLAS 00:42:19 SEM 13 00:09:21 00:09:21 CS NESLES 13,895 04:19
28 968 LEPRETRE NICOLAS 00:42:23 SEM 14 00:09:25 00:09:25 TOUQUET ATHLETIQUE CLUB 13,873 04:19
29 913 BADON EMMANUEL 00:42:33 SEM 15 00:09:35 00:09:35 NON LICENCIE 13,819 04:21
30 855 FOUCAULT SYLVAIN 00:42:46 SEM 16 00:09:48 00:09:48 CULTURE DANSE ETAPLES 13,749 04:22
31 963 ROUTIER MAUD 00:43:03 SEF 1 00:10:05 00:00:00 PATRIOTES CROSS DE GUINES 13,659 04:24
32 956 LE SCIELLOUR BRUNO 00:43:07 V2M 1 00:10:09 00:00:00 LE DRAPEAU 13,637 04:24
33 901 BODART CLEMENT 00:43:08 CAM 2 00:10:10 00:03:27 BOULOGNE ATHLETIC CLUB 13,632 04:24
34 830 MOYSE CHRISTOPHE 00:43:09 V1M 13 00:10:11 00:09:30 TOUQUET OPALE ATHLETISME 13,627 04:24
35 899 DAMIENS PHILIPPE 00:43:27 V1M 14 00:10:29 00:09:48 LE DRAPEAU 13,533 04:26
36 1153 VANDERMOLEN THIBAUT 00:43:37 SEM 17 00:10:39 00:10:39 NON LICENCIE 13,481 04:27
37 863 DUFOUR ANTOINE 00:43:40 SEM 18 00:10:42 00:10:42 ATHLETISME CLUB OUTREAU 13,466 04:27
38 959 BAHEUX SEBASTIEN 00:43:49 SEM 19 00:10:51 00:10:51 NON LICENCIE 13,420 04:28
39 869 BUY JACQUES 00:44:02 V2M 2 00:11:04 00:00:55 PATRIOTES CROSS DE GUINES 13,354 04:30
40 903 DELPORTE ANTOINE 00:44:39 SEM 20 00:11:41 00:11:41 NON LICENCIE 13,169 04:33
41 889 GINOLIN FRANKIE 00:44:43 V1M 15 00:11:45 00:11:04 LE DRAPEAU 13,149 04:34
42 1136 SAILLY ROMAIN 00:45:03 SEM 21 00:12:05 00:12:05 NON LICENCIE 13,052 04:36
43 962 BATILLIOT DOMINIQUE 00:45:08 V2F 1 00:12:10 00:00:00 PATRIOTES CROSS DE GUINES 13,028 04:36
44 860 CANNIE FRANCK 00:45:17 V1M 16 00:12:19 00:11:38 NON LICENCIE 12,985 04:37
45 858 PIERRU JULIEN 00:45:34 SEM 22 00:12:36 00:12:36 MARQUISE ATHLETISME 12,904 04:39
46 1144 COLL CHARLES 00:45:39 CAM 3 00:12:41 00:05:58 NON LICENCIE 12,881 04:39
47 827 COLLIER GUILLAUME 00:45:42 SEM 23 00:12:44 00:12:44 CS NESLES 12,867 04:40
48 893 APHERVE REGIS 00:45:45 V1M 17 00:12:47 00:12:06 LE DRAPEAU 12,852 04:40
49 915 LAVERDURE PASCAL 00:45:48 V2M 3 00:12:50 00:02:41 ATHLETISME CLUB OUTREAU 12,838 04:40
50 895 NAJMI AICHA 00:45:49 V1F 1 00:12:51 00:00:00 LE DRAPEAU 12,834 04:41
51 880 HACQUEL MICHEL 00:45:50 V1M 18 00:12:52 00:12:11 LE DRAPEAU 12,829 04:41
52 868 PIERRU SIGRID 00:46:51 V1F 2 00:13:53 00:01:02 PATRIOTES CROSS DE GUINES 12,551 04:47
53 879 MARIETTE YVETTE 00:47:05 V2F 2 00:14:07 00:01:57 LE DRAPEAU 12,488 04:48
54 849 CHARLET JULIEN 00:47:07 SEM 24 00:14:09 00:14:09 NON LICENCIE 12,480 04:48
55 1124 CAULIER RUDOLPH 00:47:11 V1M 19 00:14:13 00:13:32 COLEMBERT 12,462 04:49
56 904 CARLU JULIEN 00:47:18 SEM 25 00:14:20 00:14:20 12,431 04:50
57 905 CARLU DOMINIQUE 00:47:18 V2M 4 00:14:20 00:04:11 12,431 04:50
58 946 ROBERT DAVID 00:47:23 V1M 20 00:14:25 00:13:44 ATHLETISME CLUB OUTREAU 12,409 04:50
59 881 INGOUF NATHALIE 00:47:25 V1F 3 00:14:27 00:01:36 LE DRAPEAU 12,401 04:50
60 1143 VAN MEIN DGIORAMI 00:47:32 SEM 26 00:14:34 00:14:34 NON LICENCIE 12,370 04:51
61 967 CRETEL LAURENT 00:47:36 V1M 21 00:14:38 00:13:57 C.S. NESLES 12,353 04:51
62 885 CARDON BENOIT 00:47:37 JUM 2 00:14:39 00:06:35 LE DRAPEAU 12,349 04:52
63 907 QUENNEHEN HERVE 00:47:49 V1M 22 00:14:51 00:14:10 PATRIOTES CROSS DE GUINES 12,297 04:53
64 908 BECQUET KARINE 00:47:49 V1F 4 00:14:51 00:02:00 PATRIOTES CROSS DE GUINES 12,297 04:53
65 884 PIENTON CEDRIC 00:47:53 SEM 27 00:14:55 00:14:55 LE DRAPEAU 12,280 04:53
66 839 DUHAMEL VINCENT 00:47:57 V1M 23 00:14:59 00:14:18 C.S. NESLES 12,263 04:54
67 961 MARGOLLE CHRISTOPHE 00:48:02 V1M 24 00:15:04 00:14:23 NON LICENCIE 12,241 04:54
68 888 LAMARRE SABRINA 00:48:21 SEF 2 00:15:23 00:05:18 LE DRAPEAU 12,161 04:56
69 902 EVRARD GAEL 00:48:23 SEM 28 00:15:25 00:15:25 12,153 04:56
70 898 PETA JEANNE ESTELLE 00:48:24 V1F 5 00:15:26 00:02:35 LE DRAPEAU 12,149 04:56
71 844 BOULOGNE JONATHAN 00:48:52 SEM 29 00:15:54 00:15:54 STADE VERTOIS ATHLETISME 12,033 04:59
72 957 MALLIOPOULOS XAVIER 00:48:54 V2M 5 00:15:56 00:05:47 BERCK A C O 12,025 04:59
73 1137 SCOTTE MATHIEU 00:49:04 SEM 30 00:16:06 00:16:06 NON LICENCIE 11,984 05:00
74 1121 DETHOOR DOMINIQUE 00:49:17 V2M 6 00:16:19 00:06:10 COLEMBERT 11,931 05:02
75 917 GREMONT SOPHIE 00:49:23 V1F 6 00:16:25 00:03:34 TOUQUET OPALE ATHLETISME 11,907 05:02
76 841 DEBAS GERARD 00:49:25 V3M 1 00:16:27 00:00:00 NON LICENCIE 11,899 05:03
77 955 PARMENTIER FREDERIC 00:49:29 SEM 31 00:16:31 00:16:31 NON LICENCIE 11,883 05:03
78 853 FOUCAULT PASCAL 00:49:30 V2M 7 00:16:32 00:06:23 CULTURE DANSE ETAPLES 11,879 05:03
79 945 HAGNERE DAMIEN 00:49:38 SEM 32 00:16:40 00:16:40 NON LICENCIE 11,847 05:04
80 1140 RAMET GUILLAUME 00:49:49 CAM 4 00:16:51 00:10:08 TOUQUET OPALE ATHLETISME 11,803 05:05
81 900 HOLUIGUE VERONIQUE 00:50:01 V1F 7 00:17:03 00:04:12 NON LICENCIE 11,756 05:06
82 1132 SENEZ ARNAUD 00:50:07 SEM 33 00:17:09 00:17:09 NON LICENCIE 11,733 05:07
83 897 PETIT HUBERT 00:50:23 V1M 25 00:17:25 00:16:44 SPORT EVASION DES 2 CAPS 11,671 05:08
84 891 DEFRAITEUR PAULINE 00:50:31 SEF 3 00:17:33 00:07:28 LE DRAPEAU 11,640 05:09
85 1120 AVISSE SEBASTIEN 00:50:49 SEM 34 00:17:51 00:17:51 COLEMBERT 11,571 05:11
86 1125 DEGROOTE MAGGY 00:50:51 SEF 4 00:17:53 00:07:48 NON LICENCIE 11,563 05:11
87 851 RAY ISABELLE 00:51:02 V1F 8 00:18:04 00:05:13 CULTURE DANSE ETAPLES 11,522 05:12
88 852 LAURENT JOCELYN 00:51:04 V2M 8 00:18:06 00:07:57 CULTURE DANSE ETAPLES 11,514 05:13
89 954 FICHEUX LUCETTE 00:51:46 V2F 3 00:18:48 00:06:38 TOUQUET OPALE ATHLETISME 11,359 05:17
90 873 EVRARD ADRIEN 00:52:54 CAM 5 00:19:56 00:13:13 LE DRAPEAU 11,115 05:24
91 911 BOULET-NEGRI PASCALE 00:53:00 V1F 9 00:20:02 00:07:11 SAINT MARTIN ATHLETISME 11,094 05:24
92 1139 LEQUEUTRE CHRISTOPHE 00:53:15 V1M 26 00:20:17 00:19:36 ATHLETISME CLUB OUTREAU 11,042 05:26
93 1145 HALLENNE KEVIN 00:53:19 SEM 35 00:20:21 00:20:21 NON LICENCIE 11,028 05:26
94 876 PERROT FRANCOIS 00:53:21 SEM 36 00:20:23 00:20:23 LE DRAPEAU 11,022 05:27
95 896 MASZOTA DARIA 00:53:21 SEF 5 00:20:23 00:10:18 LE DRAPEAU 11,022 05:27
96 949 LEROY VINCENT 00:53:35 V1M 27 00:20:37 00:19:56 NON LICENCIE 10,974 05:28
97 966 LEBAS BENOIT 00:53:38 V1M 28 00:20:40 00:19:59 NON LICENCIE 10,963 05:28
98 875 HANON LILIANE 00:53:43 V2F 4 00:20:45 00:08:35 LE DRAPEAU 10,946 05:29
99 919 CAFFIER GREGORY 00:54:04 SEM 37 00:21:06 00:21:06 NON LICENCIE 10,875 05:31
100 1147 FAIT MAXIME 00:54:14 SEM 38 00:21:16 00:21:16 NON LICENCIE 10,842 05:32
101 1123 HIVART SABRINA 00:54:14 SEF 6 00:21:16 00:11:11 NON LICENCIE 10,842 05:32
102 1149 FAIT FRANCK 00:54:20 SEM 39 00:21:22 00:21:22 NON LICENCIE 10,822 05:33
103 920 WADOUX HERVE 00:54:30 V1M 29 00:21:32 00:20:51 NON LICENCIE 10,789 05:34
104 843 SAILLY ALAIN 00:54:50 V2M 9 00:21:52 00:11:43 NON LICENCIE 10,723 05:36
105 892 BELRHITI YOUNES 00:55:15 SEM 40 00:22:17 00:22:17 LE DRAPEAU 10,643 05:38
106 922 LAVIALLE CEDRIC 00:55:16 V1M 30 00:22:18 00:21:37 NON LICENCIE 10,639 05:38
107 857 MAGNIER REGIS 00:55:18 V1M 31 00:22:20 00:21:39 CULTURE DANSE ETAPLES 10,633 05:39
108 941 DUFLOS GUILLAUME 00:55:24 V1M 32 00:22:26 00:21:45 NON LICENCIE 10,614 05:39
109 948 VOLANT ROGER 00:55:31 V1M 33 00:22:33 00:21:52 COURIR À ABBEVILLE 10,591 05:40
110 883 PREMEAU CHRISTINE 00:55:35 V2F 5 00:22:37 00:10:27 LE DRAPEAU 10,579 05:40
111 1133 DRANSART PASCAL 00:55:35 V2M 10 00:22:37 00:12:28 NON LICENCIE 10,579 05:40
112 862 CRETEL LAURENCE 00:55:43 V1F 10 00:22:45 00:09:54 CS NESLES 10,553 05:41
113 1128 BEAUMONT CORINNE 00:55:50 V1F 11 00:22:52 00:10:01 BOULOGNE ATHLETIQUE CLUB 10,531 05:42
114 944 HAGNERE LORIS 00:55:54 JUM 3 00:22:56 00:14:52 NON LICENCIE 10,519 05:42
115 890 FAUQUEMBERGUE VERONIQUE 00:56:12 V1F 12 00:23:14 00:10:23 LE DRAPEAU 10,463 05:44
116 1122 SAISON LAETITIA 00:56:27 SEF 7 00:23:29 00:13:24 NON LICENCIE 10,416 05:46
117 918 DUMONT JULIE 00:56:32 SEF 8 00:23:34 00:13:29 NON LICENCIE 10,401 05:46
118 871 SAISON ALAIN 00:56:35 V2M 11 00:23:37 00:13:28 10,392 05:46
119 1129 RIDEZ JEAN-MARIE 00:56:44 V1M 34 00:23:46 00:23:05 NON LICENCIE 10,364 05:47
120 1127 LETENDART DAVID 00:57:17 V2M 12 00:24:19 00:14:10 NON LICENCIE 10,265 05:51
121 867 HOULIEZ DAVID 00:57:20 V1M 35 00:24:22 00:23:41 10,256 05:51
122 832 BLONDEEL ALEXANDRE 00:57:20 SEM 41 00:24:22 00:24:22 10,256 05:51
123 828 MAGNIER BEATRICE 00:57:27 V2F 6 00:24:29 00:12:19 PINK LADIES 10,235 05:52
124 1135 POURRE PASCAL 00:57:28 V2M 13 00:24:30 00:14:21 NON LICENCIE 10,232 05:52
125 953 GINGUENE MARC 00:57:31 V1M 36 00:24:33 00:23:52 NON LICENCIE 10,223 05:52
126 835 ZIMMY YANNICK 00:57:38 V1M 37 00:24:40 00:23:59 NON LICENCIE 10,202 05:53
127 887 CARDON FRANCK 00:57:41 V1M 38 00:24:43 00:24:02 LE DRAPEAU 10,194 05:53
128 1126 HAGNERE MICHEL 00:58:28 SEM 42 00:25:30 00:25:30 NON LICENCIE 10,057 05:58
129 834 DAUDRE SYLVIE 00:58:43 V2F 7 00:25:45 00:13:35 PERONNE ATHLETISME CLUB 10,014 05:59
130 877 MODOLO FANNY 00:58:59 V1F 13 00:26:01 00:13:10 LE DRAPEAU 9,969 06:01
131 856 PHILIPPOT LAETITIA 00:59:03 SEF 9 00:26:05 00:16:00 CULTURE DANSE ETAPLES 9,958 06:02
132 874 HANON JEAN-PIERRE 00:59:05 V2M 14 00:26:07 00:15:58 LE DRAPEAU 9,952 06:02
133 836 GOBERT SABRINA 01:00:38 SEF 10 00:27:40 00:17:35 9,698 06:11
134 837 BEAUMONT CINDY 01:00:39 SEF 11 00:27:41 00:17:36 9,695 06:11
135 825 GOBERT GILLES 01:00:39 V2M 15 00:27:41 00:17:32 NON LICENCIE 9,695 06:11
136 1138 SALOMEZ DOMINIQUE 01:00:46 SEF 12 00:27:48 00:17:43 NON LICENCIE 9,676 06:12
137 833 DAUDRE OLIVIER 01:00:48 V3M 2 00:27:50 00:11:23 PERONNE ATHLETISME CLUB 9,671 06:12
138 1148 FAIT CASSANDRE 01:01:41 SEF 13 00:28:43 00:18:38 NON LICENCIE 9,533 06:18
139 1150 RAMET CHRISTOPHE 01:01:52 V1M 39 00:28:54 00:28:13 NON LICENCIE 9,504 06:19
140 865 DUCLOY SYBILLE 01:02:12 V1F 14 00:29:14 00:16:23 NON LICENCIE 9,453 06:21
141 921 PROST ISABELLE 01:02:15 SEF 14 00:29:17 00:19:12 ATHLETISME CLUB OUTREAU 9,446 06:21
142 958 BODART FLORIAN 01:02:19 CAM 6 00:29:21 00:22:38 NON LICENCIE 9,436 06:22
143 870 LESUISSE LUDOVIC 01:02:22 SEM 43 00:29:24 00:29:24 NON LICENCIE 9,428 06:22
144 910 MOMBAILLARD FABRICE 01:02:25 V1M 40 00:29:27 00:28:46 9,421 06:22
145 952 ROUSSEL ROBERT 01:02:25 V3M 3 00:29:27 00:13:00 NON LICENCIE 9,421 06:22
146 854 FOUCAULT CATHERINE 01:02:42 V2F 8 00:29:44 00:17:34 CULTURE DANSE ETAPLES 9,378 06:24
147 912 HUGO ALAIN 01:02:53 V3M 4 00:29:55 00:13:28 NON LICENCIE 9,351 06:25
148 831 RONGER ISABELLE 01:03:28 SEF 15 00:30:30 00:20:25 9,265 06:29
149 909 HOLUIGUE CHRISTOPHE 01:05:23 SEM 44 00:32:25 00:32:25 8,993 06:40
150 1134 LIGNIER MARIE FRANCE 01:10:30 V4F 1 00:37:32 00:00:00 PINK LADIES 8,340 07:12
151 1131 SENEZ GERARD 01:10:31 V2M 16 00:37:33 00:27:24 NON LICENCIE 8,338 07:12

 

Novembre 2017
Lun Mar Mer Jeu Ven Sam Dim
1
2
3
4
5
6
7
8
9
10
11
12
13
14
15
16
17
18
19
20
21
22
23
24
25
27
28
29
30